createdAt,value
2022-10-19T00:01:15.642Z,99718.80
2022-10-19T00:03:45.854Z,99714.49
2022-10-19T00:06:25.900Z,99722.30
2022-10-19T00:08:57.044Z,99715.96
2022-10-19T00:11:26.330Z,99715.09
2022-10-19T00:13:56.260Z,99713.34
2022-10-19T00:16:27.028Z,99712.78
2022-10-19T00:19:04.580Z,99716.27
2022-10-19T00:21:33.155Z,99713.92
2022-10-19T00:24:01.278Z,99713.30
2022-10-19T00:26:29.241Z,99717.40
2022-10-19T00:28:58.357Z,99721.92
2022-10-19T00:31:26.616Z,99717.98
2022-10-19T00:33:56.918Z,99715.80
2022-10-19T00:36:27.764Z,99714.81
2022-10-19T00:38:57.173Z,99714.87
2022-10-19T00:41:27.714Z,99714.63
2022-10-19T00:44:01.968Z,99717.36
2022-10-19T00:46:33.174Z,99722.13
2022-10-19T00:49:10.814Z,99721.02
2022-10-19T00:51:48.864Z,99722.06
2022-10-19T00:54:18.747Z,99720.75
2022-10-19T00:56:49.592Z,99716.88
2022-10-19T00:59:20.164Z,99713.90
2022-10-19T01:01:50.068Z,99717.98
2022-10-19T01:04:21.332Z,99710.55
2022-10-19T01:09:22.887Z,99709.81
2022-10-19T01:12:12.169Z,99708.67
2022-10-19T01:14:50.264Z,99710.70
2022-10-19T01:17:44.505Z,99716.30
2022-10-19T01:20:18.535Z,99709.89
2022-10-19T01:23:00.120Z,99710.68
2022-10-19T01:25:47.006Z,99711.34
2022-10-19T01:28:28.891Z,99708.77
2022-10-19T01:31:22.799Z,99709.40
2022-10-19T01:34:09.937Z,99705.36
2022-10-19T01:36:59.282Z,99706.80
2022-10-19T01:39:51.764Z,99702.15
2022-10-19T01:42:26.647Z,99702.20
2022-10-19T01:45:00.526Z,99696.76
2022-10-19T01:47:37.350Z,99688.73
2022-10-19T01:50:08.525Z,99686.59
2022-10-19T01:52:39.873Z,99687.31
2022-10-19T01:55:13.297Z,99688.21
2022-10-19T01:57:47.003Z,99684.80
2022-10-19T02:00:16.744Z,99690.61
2022-10-19T02:03:25.059Z,99692.70
2022-10-19T02:05:55.809Z,99695.94
2022-10-19T02:08:32.064Z,99696.10
2022-10-19T02:11:01.912Z,99696.93
2022-10-19T02:13:32.154Z,99696.20
2022-10-19T02:16:03.995Z,99695.48
2022-10-19T02:18:36.515Z,99691.58
2022-10-19T02:21:05.182Z,99692.85
2022-10-19T02:23:34.112Z,99691.02
2022-10-19T02:26:02.538Z,99691.65
2022-10-19T02:28:31.684Z,99694.04
2022-10-19T02:31:00.452Z,99687.23
2022-10-19T02:33:29.823Z,99683.48
2022-10-19T02:35:58.816Z,99683.45
2022-10-19T02:38:28.331Z,99681.91
2022-10-19T02:41:15.953Z,99677.27
2022-10-19T02:43:49.111Z,99670.36
2022-10-19T02:46:33.255Z,99663.52
2022-10-19T02:49:03.894Z,99658.46
2022-10-19T02:51:36.505Z,99655.40
2022-10-19T02:54:07.287Z,99651.90
2022-10-19T02:56:35.552Z,99652.75
2022-10-19T02:59:04.927Z,99653.47
2022-10-19T03:01:33.139Z,99655.52
2022-10-19T03:04:01.195Z,99649.05
2022-10-19T03:06:29.224Z,99648.10
2022-10-19T03:08:57.271Z,99646.98
2022-10-19T03:11:25.312Z,99643.64
2022-10-19T03:13:53.571Z,99641.45
2022-10-19T03:16:21.688Z,99642.89
2022-10-19T03:18:50.563Z,99639.87
2022-10-19T03:21:19.884Z,99640.66
2022-10-19T03:23:48.097Z,99637.60
2022-10-19T03:26:17.406Z,99635.58
2022-10-19T03:28:46.103Z,99631.75
2022-10-19T03:31:14.295Z,99634.33
2022-10-19T03:33:42.338Z,99630.45
2022-10-19T03:36:23.675Z,99627.95
2022-10-19T03:38:57.073Z,99621.17
2022-10-19T03:41:27.927Z,99622.61
2022-10-19T03:43:56.568Z,99622.24
2022-10-19T03:46:25.031Z,99622.98
2022-10-19T03:48:54.037Z,99622.41
2022-10-19T03:51:25.168Z,99623.42
2022-10-19T03:53:57.539Z,99618.52
2022-10-19T03:56:27.299Z,99618.05
2022-10-19T03:58:57.078Z,99617.88
2022-10-19T04:01:30.780Z,99616.75
2022-10-19T04:04:04.384Z,99617.51
2022-10-19T04:06:36.437Z,99618.79
2022-10-19T04:09:07.139Z,99624.21
2022-10-19T04:11:36.105Z,99632.05
2022-10-19T04:14:04.845Z,99633.70
2022-10-19T04:16:33.335Z,99635.80
2022-10-19T04:19:01.417Z,99632.48
2022-10-19T04:21:35.954Z,99632.76
2022-10-19T04:24:15.765Z,99631.75
2022-10-19T04:26:46.831Z,99630.20
2022-10-19T04:29:16.231Z,99631.54
2022-10-19T04:31:44.811Z,99627.05
2022-10-19T04:34:12.959Z,99631.52
2022-10-19T04:36:40.982Z,99627.59
2022-10-19T04:39:09.194Z,99628.17
2022-10-19T04:41:38.393Z,99623.92
2022-10-19T04:44:07.094Z,99628.59
2022-10-19T04:46:35.433Z,99631.27
2022-10-19T04:49:06.074Z,99634.32
2022-10-19T04:51:34.832Z,99630.73
2022-10-19T04:54:03.707Z,99626.78
2022-10-19T04:56:32.618Z,99622.63
2022-10-19T04:59:01.347Z,99624.98
2022-10-19T05:01:31.570Z,99623.38
2022-10-19T05:04:01.512Z,99618.63
2022-10-19T05:06:31.381Z,99614.88
2022-10-19T05:09:00.498Z,99612.08
2022-10-19T05:11:29.281Z,99611.91
2022-10-19T05:13:57.468Z,99605.45
2022-10-19T05:16:25.947Z,99608.33
2022-10-19T05:18:56.895Z,99607.38
2022-10-19T05:21:25.222Z,99600.66
2022-10-19T05:23:54.624Z,99604.50
2022-10-19T05:26:25.083Z,99600.49
2022-10-19T05:28:56.955Z,99607.27
2022-10-19T05:31:31.106Z,99607.27
2022-10-19T05:34:00.495Z,99606.35
2022-10-19T05:36:34.662Z,99606.13
2022-10-19T05:39:06.032Z,99606.05
2022-10-19T05:41:34.915Z,99602.71
2022-10-19T05:44:04.636Z,99609.63
2022-10-19T05:46:34.133Z,99607.41
2022-10-19T05:49:02.281Z,99613.60
2022-10-19T05:51:30.370Z,99614.13
2022-10-19T05:53:59.416Z,99616.48
2022-10-19T05:56:29.726Z,99617.48
2022-10-19T05:59:05.518Z,99612.82
2022-10-19T06:01:35.215Z,99613.19
2022-10-19T06:04:04.206Z,99614.50
2022-10-19T06:06:32.415Z,99613.30
2022-10-19T06:09:00.746Z,99619.36
2022-10-19T06:11:30.888Z,99615.33
2022-10-19T06:14:00.951Z,99623.11
2022-10-19T06:16:30.944Z,99620.52
2022-10-19T06:18:59.855Z,99617.95
2022-10-19T06:21:30.655Z,99617.73
2022-10-19T06:24:02.443Z,99616.80
2022-10-19T06:26:32.516Z,99616.67
2022-10-19T06:29:02.059Z,99615.36
2022-10-19T06:31:31.811Z,99614.23
2022-10-19T06:33:59.933Z,99614.60
2022-10-19T06:36:31.156Z,99616.98
2022-10-19T06:39:01.786Z,99617.31
2022-10-19T06:41:31.418Z,99618.84
2022-10-19T06:44:01.829Z,99621.15
2022-10-19T06:46:29.981Z,99623.90
2022-10-19T06:49:01.249Z,99623.70
2022-10-19T06:51:32.448Z,99622.70
2022-10-19T06:54:00.600Z,99625.14
2022-10-19T06:56:28.678Z,99624.39
2022-10-19T06:58:58.189Z,99624.92
2022-10-19T07:01:26.421Z,99629.22
2022-10-19T07:03:55.320Z,99627.86
2022-10-19T07:06:24.023Z,99628.50
2022-10-19T07:08:53.137Z,99635.34
2022-10-19T07:11:25.021Z,99632.70
2022-10-19T07:13:53.486Z,99639.05
2022-10-19T07:16:22.465Z,99641.51
2022-10-19T07:18:52.705Z,99642.77
2022-10-19T07:21:23.041Z,99644.03
2022-10-19T07:23:51.308Z,99645.55
2022-10-19T07:26:26.907Z,99648.68
2022-10-19T07:28:57.420Z,99646.86
2022-10-19T07:31:27.690Z,99650.52
2022-10-19T07:34:01.143Z,99651.35
2022-10-19T07:36:31.261Z,99650.40
2022-10-19T07:39:02.373Z,99648.50
2022-10-19T07:41:30.395Z,99640.98
2022-10-19T07:43:58.612Z,99646.06
2022-10-19T07:46:29.331Z,99644.14
2022-10-19T07:48:57.591Z,99641.71
2022-10-19T07:51:26.716Z,99639.94
2022-10-19T07:53:54.887Z,99641.80
2022-10-19T07:56:25.205Z,99645.06
2022-10-19T07:58:55.962Z,99649.36
2022-10-19T08:01:41.081Z,99650.00
2022-10-19T08:06:57.699Z,99652.85
2022-10-19T08:09:52.808Z,99648.80
2022-10-19T08:12:15.578Z,99652.45
2022-10-19T08:14:43.935Z,99655.15
2022-10-19T08:17:16.665Z,99659.29
2022-10-19T08:19:46.016Z,99658.52
2022-10-19T08:22:14.093Z,99663.95
2022-10-19T08:24:42.068Z,99661.11
2022-10-19T08:27:10.445Z,99663.58
2022-10-19T08:29:38.407Z,99662.24
2022-10-19T08:32:06.412Z,99664.86
2022-10-19T08:34:35.072Z,99669.20
2022-10-19T08:37:10.352Z,99665.14
2022-10-19T08:39:48.435Z,99661.47
2022-10-19T08:42:21.392Z,99661.69
2022-10-19T08:44:55.930Z,99665.66
2022-10-19T08:47:39.208Z,99665.01
2022-10-19T08:50:24.011Z,99666.77
2022-10-19T08:53:05.159Z,99666.53
2022-10-19T08:55:58.634Z,99668.79
2022-10-19T08:58:36.842Z,99664.13
2022-10-19T09:01:17.003Z,99667.56
2022-10-19T09:03:59.846Z,99663.24
2022-10-19T09:06:45.511Z,99668.60
2022-10-19T09:09:14.734Z,99666.45
2022-10-19T09:11:47.436Z,99670.85
2022-10-19T09:14:44.911Z,99669.30
2022-10-19T09:17:16.037Z,99665.54
2022-10-19T09:19:44.113Z,99667.16
2022-10-19T09:22:20.902Z,99665.64
2022-10-19T09:24:57.677Z,99668.63
2022-10-19T09:27:33.505Z,99670.33
2022-10-19T09:30:05.512Z,99671.47
2022-10-19T09:32:38.097Z,99678.82
2022-10-19T09:35:22.917Z,99677.91
2022-10-19T09:37:51.661Z,99681.78
2022-10-19T09:40:28.506Z,99677.83
2022-10-19T09:42:58.509Z,99674.16
2022-10-19T09:45:35.602Z,99678.23
2022-10-19T09:48:14.261Z,99678.74
2022-10-19T09:50:50.697Z,99673.70
2022-10-19T09:53:21.285Z,99672.58
2022-10-19T09:55:56.187Z,99676.90
2022-10-19T09:58:29.235Z,99677.98
2022-10-19T10:01:01.948Z,99680.09
2022-10-19T10:03:36.354Z,99685.17
2022-10-19T10:06:08.372Z,99684.14
2022-10-19T10:08:40.067Z,99688.74
2022-10-19T10:11:14.596Z,99688.77
2022-10-19T10:13:48.571Z,99696.82
2022-10-19T10:16:20.440Z,99697.05
2022-10-19T10:18:54.467Z,99700.80
2022-10-19T10:21:32.127Z,99700.20
2022-10-19T10:24:12.826Z,99703.53
2022-10-19T10:26:47.628Z,99701.39
2022-10-19T10:29:19.731Z,99697.73
2022-10-19T10:31:52.301Z,99698.46
2022-10-19T10:34:45.677Z,99703.52
2022-10-19T10:37:35.083Z,99700.50
2022-10-19T10:40:05.444Z,99701.94
2022-10-19T10:42:36.696Z,99703.39
2022-10-19T10:45:16.431Z,99701.23
2022-10-19T10:47:48.383Z,99702.34
2022-10-19T10:50:21.911Z,99701.84
2022-10-19T10:53:02.373Z,99701.40
2022-10-19T10:55:33.464Z,99701.47
2022-10-19T10:58:16.714Z,99700.35
2022-10-19T11:00:45.512Z,99697.83
2022-10-19T11:03:23.867Z,99701.71
2022-10-19T11:05:57.637Z,99703.58
2022-10-19T11:08:49.419Z,99700.19
2022-10-19T11:11:22.696Z,99704.06
2022-10-19T11:13:59.192Z,99703.89
2022-10-19T11:16:32.696Z,99698.11
2022-10-19T11:19:22.959Z,99698.48
2022-10-19T11:22:22.334Z,99697.41
2022-10-19T11:25:25.145Z,99697.17
2022-10-19T11:27:56.317Z,99699.55
2022-10-19T11:30:25.660Z,99700.17
2022-10-19T11:33:12.511Z,99699.52
2022-10-19T11:36:02.355Z,99699.66
2022-10-19T11:39:09.073Z,99696.21
2022-10-19T11:41:53.516Z,99694.39
2022-10-19T11:44:39.173Z,99692.52
2022-10-19T11:47:32.269Z,99693.17
2022-10-19T11:50:29.602Z,99689.29
2022-10-19T11:53:18.607Z,99687.79
2022-10-19T11:56:19.548Z,99686.04
2022-10-19T11:58:54.982Z,99679.66
2022-10-19T12:01:54.515Z,99681.25
2022-10-19T12:04:22.757Z,99675.65
2022-10-19T12:07:30.787Z,99679.64
2022-10-19T12:10:17.047Z,99677.11
2022-10-19T12:12:51.738Z,99676.17
2022-10-19T12:15:31.829Z,99671.50
2022-10-19T12:18:22.690Z,99668.27
2022-10-19T12:20:54.604Z,99668.48
2022-10-19T12:23:37.651Z,99672.83
2022-10-19T12:26:14.848Z,99670.39
2022-10-19T12:28:49.602Z,99662.98
2022-10-19T12:31:19.001Z,99675.46
2022-10-19T12:33:59.416Z,99673.50
2022-10-19T12:36:51.845Z,99672.54
2022-10-19T12:39:41.334Z,99681.30
2022-10-19T12:42:32.643Z,99679.30
2022-10-19T12:45:04.228Z,99680.89
2022-10-19T12:47:32.804Z,99678.38
2022-10-19T12:50:01.434Z,99682.85
2022-10-19T12:52:37.060Z,99682.67
2022-10-19T12:55:26.240Z,99703.56
2022-10-19T12:58:01.448Z,99703.48
2022-10-19T13:00:36.449Z,99708.55
2022-10-19T13:03:15.562Z,99704.05
2022-10-19T13:05:59.231Z,99699.84
2022-10-19T13:08:37.860Z,99696.27
2022-10-19T13:11:14.815Z,99705.92
2022-10-19T13:13:55.679Z,99708.52
2022-10-19T13:16:30.007Z,99711.48
2022-10-19T13:19:13.557Z,99715.55
2022-10-19T13:21:51.559Z,99713.95
2022-10-19T13:27:08.885Z,99711.89
2022-10-19T13:29:44.757Z,99709.75
2022-10-19T13:32:31.076Z,99705.19
2022-10-19T13:35:24.378Z,99705.08
2022-10-19T13:38:19.563Z,99702.52
2022-10-19T13:40:47.837Z,99710.11
2022-10-19T13:43:22.396Z,99713.52
2022-10-19T13:46:16.324Z,99711.80
2022-10-19T13:49:06.151Z,99713.92
2022-10-19T13:52:03.697Z,99719.61
2022-10-19T13:54:37.552Z,99723.12
2022-10-19T13:57:14.565Z,99722.98
2022-10-19T13:59:50.090Z,99714.68
2022-10-19T14:02:30.892Z,99712.62
2022-10-19T14:05:10.921Z,99711.30
2022-10-19T14:08:01.377Z,99709.15
2022-10-19T14:10:32.745Z,99707.16
2022-10-19T14:13:05.608Z,99701.88
2022-10-19T14:15:35.653Z,99710.20
2022-10-19T14:18:05.899Z,99709.69
2022-10-19T14:20:38.690Z,99710.14
2022-10-19T14:23:28.196Z,99712.86
2022-10-19T14:25:56.471Z,99718.24
2022-10-19T14:28:25.421Z,99717.96
2022-10-19T14:31:01.431Z,99720.02
2022-10-19T14:33:33.662Z,99716.34
2022-10-19T14:36:02.626Z,99720.63
2022-10-19T14:38:37.345Z,99721.45
2022-10-19T14:41:17.774Z,99721.79
2022-10-19T14:43:46.234Z,99726.98
2022-10-19T14:46:15.510Z,99725.91
2022-10-19T14:48:46.066Z,99729.09
2022-10-19T14:51:56.253Z,99728.06
2022-10-19T14:54:38.875Z,99725.52
2022-10-19T14:57:12.372Z,99725.48
2022-10-19T14:59:49.905Z,99731.23
2022-10-19T15:02:20.334Z,99739.58
2022-10-19T15:04:49.562Z,99743.24
2022-10-19T15:07:28.915Z,99740.16
2022-10-19T15:10:00.845Z,99744.77
2022-10-19T15:12:40.356Z,99747.77
2022-10-19T15:15:13.891Z,99749.76
2022-10-19T15:18:25.207Z,99751.83
2022-10-19T15:21:13.664Z,99754.96
2022-10-19T15:23:45.684Z,99759.58
2022-10-19T15:26:19.569Z,99756.27
2022-10-19T15:28:48.773Z,99753.52
2022-10-19T15:31:28.994Z,99748.02
2022-10-19T15:34:01.869Z,99745.72
2022-10-19T15:36:31.718Z,99748.02
2022-10-19T15:39:25.021Z,99751.67
2022-10-19T15:41:53.820Z,99754.58
2022-10-19T15:44:54.537Z,99762.55
2022-10-19T15:47:24.793Z,99761.62
2022-10-19T15:49:59.157Z,99760.80
2022-10-19T15:52:33.656Z,99766.34
2022-10-19T15:55:02.061Z,99773.17
2022-10-19T15:57:36.513Z,99772.73
2022-10-19T16:00:08.424Z,99772.95
2022-10-19T16:02:36.687Z,99771.01
2022-10-19T16:07:38.576Z,99778.41
2022-10-19T16:10:08.324Z,99781.51
2022-10-19T16:12:36.366Z,99789.36
2022-10-19T16:15:05.174Z,99794.49
2022-10-19T16:17:33.606Z,99794.73
2022-10-19T16:20:01.774Z,99797.41
2022-10-19T16:22:29.956Z,99800.64
2022-10-19T16:24:58.220Z,99810.02
2022-10-19T16:27:26.164Z,99812.88
2022-10-19T16:29:54.722Z,99811.55
2022-10-19T16:32:22.749Z,99815.74
2022-10-19T16:34:50.827Z,99817.13
2022-10-19T16:37:18.904Z,99815.11
2022-10-19T16:39:46.864Z,99818.23
2022-10-19T16:42:15.137Z,99824.92
2022-10-19T16:44:44.427Z,99830.86
2022-10-19T16:47:13.178Z,99832.42
2022-10-19T16:49:41.198Z,99833.77
2022-10-19T16:52:14.227Z,99841.47
2022-10-19T16:54:42.309Z,99845.37
2022-10-19T16:57:10.361Z,99848.65
2022-10-19T16:59:38.413Z,99854.35
2022-10-19T17:02:06.442Z,99858.33
2022-10-19T17:04:35.930Z,99865.66
2022-10-19T17:07:06.230Z,99869.67
2022-10-19T17:09:41.744Z,99873.84
2022-10-19T17:12:11.451Z,99877.95
2022-10-19T17:14:42.207Z,99875.83
2022-10-19T17:17:11.313Z,99872.02
2022-10-19T17:19:39.672Z,99875.73
2022-10-19T17:22:07.800Z,99878.63
2022-10-19T17:24:37.454Z,99883.30
2022-10-19T17:27:05.710Z,99884.77
2022-10-19T17:29:33.842Z,99887.27
2022-10-19T17:32:01.786Z,99891.41
2022-10-19T17:34:29.878Z,99889.39
2022-10-19T17:36:58.223Z,99897.05
2022-10-19T17:39:29.801Z,99903.59
2022-10-19T17:42:03.566Z,99905.13
2022-10-19T17:44:31.971Z,99908.19
2022-10-19T17:47:01.182Z,99912.48
2022-10-19T17:49:30.168Z,99908.83
2022-10-19T17:51:58.700Z,99908.45
2022-10-19T17:54:26.988Z,99909.88
2022-10-19T17:56:55.303Z,99911.79
2022-10-19T17:59:30.505Z,99913.37
2022-10-19T18:02:05.244Z,99923.85
2022-10-19T18:04:33.397Z,99924.08
2022-10-19T18:07:01.752Z,99923.69
2022-10-19T18:09:30.084Z,99928.84
2022-10-19T18:11:58.194Z,99934.05
2022-10-19T18:14:26.233Z,99936.01
2022-10-19T18:16:54.888Z,99937.14
2022-10-19T18:19:23.071Z,99940.55
2022-10-19T18:21:52.405Z,99940.30
2022-10-19T18:24:21.480Z,99939.25
2022-10-19T18:26:51.145Z,99944.59
2022-10-19T18:29:22.554Z,99948.86
2022-10-19T18:31:52.508Z,99949.27
2022-10-19T18:34:24.578Z,99947.90
2022-10-19T18:36:53.517Z,99945.02
2022-10-19T18:39:21.966Z,99950.77
2022-10-19T18:41:54.756Z,99951.51
2022-10-19T18:44:26.548Z,99950.37
2022-10-19T18:46:57.048Z,99948.83
2022-10-19T18:49:25.685Z,99950.83
2022-10-19T18:51:55.692Z,99957.81
2022-10-19T18:54:27.939Z,99956.30
2022-10-19T18:56:56.432Z,99959.73
2022-10-19T18:59:24.615Z,99959.36
2022-10-19T19:01:52.811Z,99963.13
2022-10-19T19:04:20.903Z,99965.88
2022-10-19T19:06:48.951Z,99965.66
2022-10-19T19:09:18.879Z,99965.65
2022-10-19T19:11:47.024Z,99968.86
2022-10-19T19:14:18.273Z,99970.30
2022-10-19T19:16:47.417Z,99976.20
2022-10-19T19:19:17.034Z,99979.09
2022-10-19T19:21:45.682Z,99977.52
2022-10-19T19:24:18.299Z,99980.45
2022-10-19T19:26:50.105Z,99989.31
2022-10-19T19:29:19.816Z,99987.63
2022-10-19T19:31:48.334Z,99992.58
2022-10-19T19:34:16.565Z,99990.86
2022-10-19T19:36:48.855Z,99995.86
2022-10-19T19:39:20.696Z,99995.73
2022-10-19T19:41:50.005Z,99997.01
2022-10-19T19:44:18.432Z,99996.70
2022-10-19T19:46:46.550Z,100003.02
2022-10-19T19:49:14.755Z,100005.88
2022-10-19T19:51:43.124Z,100013.36
2022-10-19T19:54:12.454Z,100019.69
2022-10-19T19:56:42.514Z,100022.30
2022-10-19T19:59:12.383Z,100021.21
2022-10-19T20:01:40.823Z,100020.42
2022-10-19T20:04:09.628Z,100022.52
2022-10-19T20:06:39.834Z,100025.51
2022-10-19T20:09:08.980Z,100031.34
2022-10-19T20:11:42.147Z,100038.19
2022-10-19T20:14:11.711Z,100041.73
2022-10-19T20:16:40.391Z,100038.23
2022-10-19T20:19:12.344Z,100042.70
2022-10-19T20:21:41.502Z,100043.13
2022-10-19T20:24:10.007Z,100049.58
2022-10-19T20:26:38.515Z,100052.77
2022-10-19T20:29:06.956Z,100051.06
2022-10-19T20:31:39.580Z,100055.41
2022-10-19T20:34:13.693Z,100056.29
2022-10-19T20:36:42.608Z,100052.27
2022-10-19T20:39:11.141Z,100054.38
2022-10-19T20:41:39.320Z,100057.96
2022-10-19T20:44:07.547Z,100056.59
2022-10-19T20:46:37.127Z,100056.29
2022-10-19T20:49:05.561Z,100057.40
2022-10-19T20:51:36.691Z,100054.50
2022-10-19T20:54:08.526Z,100057.88
2022-10-19T20:56:39.011Z,100057.88
2022-10-19T20:59:13.284Z,100064.58
2022-10-19T21:01:43.449Z,100060.28
2022-10-19T21:04:13.922Z,100063.92
2022-10-19T21:06:45.511Z,100065.66
2022-10-19T21:09:16.796Z,100064.75
2022-10-19T21:11:45.920Z,100069.39
2022-10-19T21:14:16.809Z,100066.92
2022-10-19T21:16:45.368Z,100074.09
2022-10-19T21:19:18.020Z,100076.88
2022-10-19T21:21:51.876Z,100081.15
2022-10-19T21:24:23.403Z,100087.85
2022-10-19T21:29:24.515Z,100091.20
2022-10-19T21:31:53.549Z,100091.14
2022-10-19T21:34:27.098Z,100088.67
2022-10-19T21:36:56.228Z,100093.05
2022-10-19T21:39:24.405Z,100091.80
2022-10-19T21:41:52.409Z,100087.66
2022-10-19T21:44:23.125Z,100086.70
2022-10-19T21:46:51.349Z,100078.73
2022-10-19T21:49:19.355Z,100077.55
2022-10-19T21:51:53.894Z,100077.90
2022-10-19T21:54:29.257Z,100078.30
2022-10-19T21:56:58.595Z,100077.20
2022-10-19T21:59:26.660Z,100077.36
2022-10-19T22:01:56.426Z,100076.71
2022-10-19T22:04:24.568Z,100073.41
2022-10-19T22:06:52.710Z,100072.16
2022-10-19T22:09:22.096Z,100075.51
2022-10-19T22:11:50.382Z,100078.41
2022-10-19T22:14:18.422Z,100072.29
2022-10-19T22:16:46.564Z,100066.26
2022-10-19T22:19:14.765Z,100071.48
2022-10-19T22:21:42.759Z,100070.15
2022-10-19T22:24:14.134Z,100071.40
2022-10-19T22:26:44.927Z,100078.01
2022-10-19T22:29:13.487Z,100078.84
2022-10-19T22:31:42.189Z,100082.70
2022-10-19T22:34:14.817Z,100085.83
2022-10-19T22:36:43.794Z,100085.61
2022-10-19T22:39:12.683Z,100082.05
2022-10-19T22:41:40.713Z,100080.42
2022-10-19T22:44:08.710Z,100084.59
2022-10-19T22:46:36.874Z,100085.67
2022-10-19T22:49:05.032Z,100084.13
2022-10-19T22:51:33.755Z,100088.23
2022-10-19T22:54:01.956Z,100085.34
2022-10-19T22:56:30.058Z,100094.66
2022-10-19T22:58:59.301Z,100093.05
2022-10-19T23:01:27.716Z,100095.72
2022-10-19T23:03:56.051Z,100098.05
2022-10-19T23:06:24.633Z,100095.58
2022-10-19T23:08:53.842Z,100092.73
2022-10-19T23:11:22.362Z,100089.31
2022-10-19T23:13:50.398Z,100090.99
2022-10-19T23:16:18.621Z,100092.02
2022-10-19T23:18:46.657Z,100091.35
2022-10-19T23:21:15.400Z,100097.94
2022-10-19T23:23:43.657Z,100099.68
2022-10-19T23:26:17.757Z,100106.55
2022-10-19T23:28:47.754Z,100114.23
2022-10-19T23:31:19.126Z,100109.89
2022-10-19T23:33:47.464Z,100111.33
2022-10-19T23:36:20.782Z,100109.35
2022-10-19T23:38:50.952Z,100118.20
2022-10-19T23:41:20.591Z,100115.73
2022-10-19T23:43:49.468Z,100118.33
2022-10-19T23:46:17.935Z,100120.35
2022-10-19T23:48:46.236Z,100123.02
2022-10-19T23:51:17.465Z,100124.95
2022-10-19T23:53:48.176Z,100123.94
2022-10-19T23:56:17.912Z,100119.45
2022-10-19T23:58:47.036Z,100121.11
